Time;durP1;ratioP1;P1;durP2;ratioP2;P2;SDS_P1;SDS_P2;PMS_P1;PMS_P2;Temp;Humidity;BMP_temperature;BMP_pressure;BME280_temperature;BME280_humidity;BME280_pressure;Samples;Min_cycle;Max_cycle;Signal;HPM_P1;HPM_P2
2021/11/24 00:01:55;;;;;;;78.63;31.13;;;5.60;99.90;;;;;;5034677;28;20040;-61
2021/11/24 00:04:21;;;;;;;70.80;29.75;;;5.60;99.90;;;;;;5033046;28;20030;-64
2021/11/24 00:06:46;;;;;;;74.35;32.53;;;5.60;99.90;;;;;;5031656;28;20395;-64
2021/11/24 00:09:12;;;;;;;75.10;31.92;;;5.60;99.90;;;;;;5030637;28;20656;-64
2021/11/24 00:11:37;;;;;;;79.07;31.58;;;5.60;99.90;;;;;;5030748;28;20033;-64
2021/11/24 00:14:03;;;;;;;73.78;30.35;;;5.60;99.90;;;;;;5036858;28;20068;-64
2021/11/24 00:16:28;;;;;;;83.65;32.42;;;5.50;99.90;;;;;;5034669;28;20021;-63
2021/11/24 00:18:54;;;;;;;75.07;31.75;;;5.50;99.90;;;;;;5034531;28;20032;-63
2021/11/24 00:21:20;;;;;;;78.13;32.53;;;5.50;99.90;;;;;;5032277;28;20021;-62
2021/11/24 00:23:46;;;;;;;75.70;30.25;;;5.50;99.90;;;;;;5031045;28;20292;-63
2021/11/24 00:26:12;;;;;;;70.38;29.67;;;5.50;99.90;;;;;;5041204;28;20093;-62
2021/11/24 00:28:38;;;;;;;74.53;30.88;;;5.60;99.90;;;;;;5036817;28;20396;-64
2021/11/24 00:31:04;;;;;;;71.95;30.05;;;5.60;99.90;;;;;;5035490;28;20044;-64
2021/11/24 00:33:29;;;;;;;68.10;29.52;;;5.60;99.90;;;;;;5035127;28;20079;-62
2021/11/24 00:35:55;;;;;;;76.28;31.70;;;5.50;99.90;;;;;;5033563;28;20030;-64
2021/11/24 00:38:21;;;;;;;86.35;30.58;;;5.50;99.90;;;;;;5031849;28;20036;-62
2021/11/24 00:40:47;;;;;;;78.22;32.85;;;5.50;99.90;;;;;;5030617;28;20064;-64
2021/11/24 00:43:12;;;;;;;68.15;29.17;;;5.50;99.90;;;;;;5031726;28;20065;-63
2021/11/24 00:45:38;;;;;;;78.75;31.38;;;5.50;99.90;;;;;;5030404;28;20025;-63
2021/11/24 00:48:04;;;;;;;76.05;29.42;;;5.50;99.90;;;;;;5029787;28;20160;-63
2021/11/24 00:50:30;;;;;;;69.90;30.13;;;5.50;99.90;;;;;;5022605;28;20025;-63
2021/11/24 00:52:56;;;;;;;92.13;32.63;;;5.50;99.90;;;;;;5030845;28;20048;-63
2021/11/24 00:55:21;;;;;;;77.72;31.13;;;5.50;99.90;;;;;;5029857;28;20134;-63
2021/11/24 00:57:47;;;;;;;81.25;31.52;;;5.50;99.90;;;;;;5029815;28;20099;-63
2021/11/24 01:00:15;;;;;;;79.82;31.45;;;5.50;99.90;;;;;;5033914;28;20033;-63
2021/11/24 01:02:42;;;;;;;78.35;30.88;;;5.50;99.90;;;;;;5032829;28;20017;-60
2021/11/24 01:05:08;;;;;;;71.57;30.52;;;5.40;99.90;;;;;;5029340;28;20075;-63
2021/11/24 01:07:34;;;;;;;70.25;28.77;;;5.40;99.90;;;;;;5030626;28;20029;-63
2021/11/24 01:09:59;;;;;;;75.30;31.45;;;5.40;99.90;;;;;;5036469;28;20090;-63
2021/11/24 01:12:25;;;;;;;72.65;30.20;;;5.60;99.90;;;;;;5031349;28;20044;-63
2021/11/24 01:14:51;;;;;;;70.03;30.17;;;5.60;99.90;;;;;;5032167;28;20044;-64
2021/11/24 01:17:17;;;;;;;84.80;32.33;;;5.50;99.90;;;;;;5030138;28;20471;-63
2021/11/24 01:19:43;;;;;;;79.10;31.48;;;5.60;99.90;;;;;;5031367;28;20034;-63
2021/11/24 01:22:08;;;;;;;73.13;31.08;;;5.60;99.90;;;;;;5033635;28;20028;-63
2021/11/24 01:24:34;;;;;;;73.30;30.85;;;5.70;99.90;;;;;;5031994;28;20042;-63
2021/11/24 01:27:00;;;;;;;76.60;30.83;;;5.70;99.90;;;;;;5036243;28;20029;-62
2021/11/24 01:29:25;;;;;;;63.83;27.63;;;5.70;99.90;;;;;;5034920;28;20106;-63
2021/11/24 01:31:51;;;;;;;73.50;30.42;;;5.70;99.90;;;;;;5030564;28;20068;-63
2021/11/24 01:34:17;;;;;;;80.95;29.05;;;5.70;99.90;;;;;;5039515;28;20039;-64
2021/11/24 01:36:42;;;;;;;78.82;30.65;;;5.70;99.90;;;;;;5035012;28;20056;-64
2021/11/24 01:39:08;;;;;;;83.88;34.35;;;5.70;99.90;;;;;;5038923;28;20031;-63
2021/11/24 01:41:34;;;;;;;77.07;29.73;;;5.60;99.90;;;;;;5031399;28;20020;-63
2021/11/24 01:44:00;;;;;;;79.85;31.23;;;5.70;99.90;;;;;;5036423;28;20040;-62
2021/11/24 01:46:28;;;;;;;75.82;30.85;;;5.70;99.90;;;;;;5030523;28;20479;-61
2021/11/24 01:48:54;;;;;;;62.45;27.35;;;5.60;99.90;;;;;;5029261;28;20480;-62
2021/11/24 01:51:20;;;;;;;82.47;31.00;;;5.60;99.90;;;;;;5029347;28;20118;-62
2021/11/24 01:53:47;;;;;;;63.65;27.35;;;5.60;99.90;;;;;;5034784;28;20065;-63
2021/11/24 01:56:13;;;;;;;76.45;31.15;;;5.60;99.90;;;;;;5030759;28;20029;-64
2021/11/24 01:58:39;;;;;;;73.18;30.85;;;5.50;99.90;;;;;;5036564;28;20045;-63
2021/11/24 02:01:05;;;;;;;72.43;31.25;;;5.50;99.90;;;;;;5030053;28;20029;-63
2021/11/24 02:03:31;;;;;;;74.57;30.98;;;5.50;99.90;;;;;;5028866;28;20399;-63
2021/11/24 02:05:57;;;;;;;76.82;31.25;;;5.50;99.90;;;;;;5027880;28;20028;-63
2021/11/24 02:08:23;;;;;;;79.57;32.92;;;5.50;99.90;;;;;;5034027;28;20373;-63
2021/11/24 02:10:49;;;;;;;83.18;33.67;;;5.50;99.90;;;;;;5029991;28;20025;-64
2021/11/24 02:13:14;;;;;;;83.47;31.45;;;5.50;99.90;;;;;;5033229;28;20025;-63
2021/11/24 02:15:40;;;;;;;85.38;31.88;;;5.60;99.90;;;;;;5029530;28;20091;-64
2021/11/24 02:18:07;;;;;;;85.40;31.92;;;5.60;99.90;;;;;;5035505;28;20114;-64
2021/11/24 02:20:44;;;;;;;79.75;32.20;;;5.60;99.90;;;;;;5028783;28;20082;-64
2021/11/24 02:23:12;;;;;;;78.05;32.33;;;5.60;99.90;;;;;;5028024;28;20034;-64
2021/11/24 02:25:39;;;;;;;77.43;31.30;;;5.60;99.90;;;;;;5028379;28;20108;-64
2021/11/24 02:28:05;;;;;;;81.07;30.83;;;5.60;99.90;;;;;;5034523;28;20105;-63
2021/11/24 02:30:31;;;;;;;85.45;31.60;;;5.60;99.90;;;;;;5033044;28;20025;-63
2021/11/24 02:32:57;;;;;;;80.18;30.55;;;5.60;99.90;;;;;;5034414;28;20380;-63
2021/11/24 02:35:23;;;;;;;81.97;30.85;;;5.60;99.90;;;;;;5031262;28;20047;-64
2021/11/24 02:37:48;;;;;;;85.35;33.65;;;5.60;99.90;;;;;;5032528;28;20072;-64
2021/11/24 02:40:14;;;;;;;75.80;31.25;;;5.50;99.90;;;;;;5032649;28;20045;-64
2021/11/24 02:42:41;;;;;;;83.15;30.90;;;5.60;99.90;;;;;;5032119;28;20025;-62
2021/11/24 02:45:07;;;;;;;80.88;31.60;;;5.60;99.90;;;;;;5040072;28;20025;-63
2021/11/24 02:47:33;;;;;;;78.38;31.02;;;5.60;99.90;;;;;;5035940;28;20057;-63
2021/11/24 02:50:03;;;;;;;81.43;32.17;;;5.60;99.90;;;;;;5032872;28;20083;-62
2021/11/24 02:52:30;;;;;;;78.90;31.10;;;5.60;99.90;;;;;;5035072;28;20076;-62
2021/11/24 02:54:58;;;;;;;90.32;31.70;;;5.60;99.90;;;;;;5031172;28;20061;-62
2021/11/24 02:57:38;;;;;;;87.72;31.30;;;5.50;99.90;;;;;;5036179;28;20082;-64
2021/11/24 03:00:17;;;;;;;82.05;32.45;;;5.50;99.90;;;;;;5044016;28;20029;-64
2021/11/24 03:02:44;;;;;;;85.32;33.13;;;5.60;99.90;;;;;;5033934;28;20040;-64
2021/11/24 03:05:10;;;;;;;87.57;32.38;;;5.50;99.90;;;;;;5032006;28;20513;-64
2021/11/24 03:07:37;;;;;;;82.78;31.60;;;5.50;99.90;;;;;;5041480;28;20071;-63
2021/11/24 03:10:04;;;;;;;77.30;30.30;;;5.50;99.90;;;;;;5032733;28;20040;-63
2021/11/24 03:12:30;;;;;;;84.85;31.60;;;5.50;99.90;;;;;;5034245;28;20021;-63
2021/11/24 03:14:55;;;;;;;78.55;31.33;;;5.70;99.90;;;;;;5036252;28;20036;-63
2021/11/24 03:17:21;;;;;;;77.63;29.38;;;5.70;99.90;;;;;;5040661;28;20029;-63
2021/11/24 03:19:48;;;;;;;82.57;34.92;;;5.70;99.90;;;;;;5033566;28;20123;-62
2021/11/24 03:22:17;;;;;;;95.43;33.33;;;5.70;99.90;;;;;;5033706;28;20021;-63
2021/11/24 03:24:43;;;;;;;87.30;31.33;;;5.70;99.90;;;;;;5031001;28;20024;-63
2021/11/24 03:27:08;;;;;;;88.03;30.55;;;5.70;99.90;;;;;;5035335;28;20029;-62
2021/11/24 03:29:34;;;;;;;77.43;29.98;;;5.70;99.90;;;;;;5031238;28;20120;-62
2021/11/24 03:32:00;;;;;;;83.38;33.03;;;5.70;99.90;;;;;;5033718;28;20025;-62
2021/11/24 03:34:25;;;;;;;85.80;31.95;;;5.60;99.90;;;;;;5030173;28;20554;-63
2021/11/24 03:36:51;;;;;;;89.88;32.50;;;5.60;99.90;;;;;;5033063;28;20112;-64
2021/11/24 03:39:16;;;;;;;74.43;29.05;;;5.50;99.90;;;;;;5030055;28;20538;-63
2021/11/24 03:41:42;;;;;;;80.53;28.80;;;5.50;99.90;;;;;;5031901;28;20041;-63
2021/11/24 03:44:08;;;;;;;87.95;30.63;;;5.50;99.90;;;;;;5035725;28;20017;-61
2021/11/24 03:46:33;;;;;;;88.03;33.78;;;5.50;99.90;;;;;;5034856;28;20025;-64
2021/11/24 03:48:59;;;;;;;87.28;33.20;;;5.50;99.90;;;;;;5031648;28;20502;-64
2021/11/24 03:51:24;;;;;;;84.40;31.30;;;5.50;99.90;;;;;;5031049;28;20036;-63
2021/11/24 03:53:51;;;;;;;92.38;34.22;;;5.50;99.90;;;;;;5050321;23;20045;-63
2021/11/24 03:56:16;;;;;;;88.00;33.75;;;5.50;99.90;;;;;;5044560;28;20021;-63
2021/11/24 03:58:42;;;;;;;84.88;30.65;;;5.50;99.90;;;;;;5047781;28;20040;-63
2021/11/24 04:01:08;;;;;;;92.40;32.78;;;5.50;99.90;;;;;;5029787;28;20479;-63
2021/11/24 04:03:34;;;;;;;92.65;33.00;;;5.50;99.90;;;;;;5050145;28;20021;-63
2021/11/24 04:06:00;;;;;;;88.00;33.83;;;5.50;99.90;;;;;;5050169;28;20820;-63
2021/11/24 04:08:25;;;;;;;90.18;33.08;;;5.50;99.90;;;;;;5051183;28;20082;-62
2021/11/24 04:10:51;;;;;;;77.18;30.00;;;5.60;99.90;;;;;;5043450;28;20213;-62
2021/11/24 04:13:16;;;;;;;82.18;31.83;;;5.50;99.90;;;;;;5050945;28;20032;-62
2021/11/24 04:15:42;;;;;;;90.93;31.38;;;5.50;99.90;;;;;;5050755;28;20032;-62
2021/11/24 04:18:08;;;;;;;82.55;30.13;;;5.60;99.90;;;;;;5050804;28;20490;-64
2021/11/24 04:20:33;;;;;;;94.05;34.28;;;5.60;99.90;;;;;;5050520;28;20489;-63
2021/11/24 04:22:59;;;;;;;94.32;32.70;;;5.60;99.90;;;;;;5050501;28;20033;-62
2021/11/24 04:25:24;;;;;;;89.60;33.90;;;5.60;99.90;;;;;;5050386;28;20514;-62
2021/11/24 04:27:50;;;;;;;90.80;33.95;;;5.50;99.90;;;;;;5050016;28;20112;-64
2021/11/24 04:30:17;;;;;;;93.40;33.20;;;5.50;99.90;;;;;;5048958;28;20037;-65
2021/11/24 04:32:43;;;;;;;97.22;34.95;;;5.50;99.90;;;;;;5050162;28;20025;-63
2021/11/24 04:35:09;;;;;;;81.85;31.25;;;5.50;99.90;;;;;;5049666;28;20151;-64
2021/11/24 04:37:35;;;;;;;90.03;33.40;;;5.50;99.90;;;;;;5049421;28;20398;-63
2021/11/24 04:40:03;;;;;;;86.35;33.30;;;5.60;99.90;;;;;;5045158;28;20024;-63
2021/11/24 04:42:29;;;;;;;89.90;33.05;;;5.60;99.90;;;;;;5050034;28;20063;-64
2021/11/24 04:44:54;;;;;;;94.45;32.85;;;5.60;99.90;;;;;;5048426;28;20060;-64
2021/11/24 04:47:20;;;;;;;101.53;34.30;;;5.50;99.90;;;;;;5048608;28;20032;-64
2021/11/24 04:49:46;;;;;;;92.55;33.97;;;5.50;99.90;;;;;;5049358;28;20025;-65
2021/11/24 04:52:11;;;;;;;93.30;34.08;;;5.60;99.90;;;;;;5049266;28;20567;-65
2021/11/24 04:54:37;;;;;;;87.07;32.92;;;5.60;99.90;;;;;;5049564;28;20029;-65
2021/11/24 04:57:03;;;;;;;89.82;34.05;;;5.60;99.90;;;;;;5048955;28;20159;-65
2021/11/24 04:59:29;;;;;;;89.57;32.50;;;5.50;99.90;;;;;;5049363;28;20155;-64
2021/11/24 05:01:54;;;;;;;88.15;34.00;;;5.60;99.90;;;;;;5049045;28;20538;-64
2021/11/24 05:04:21;;;;;;;90.32;32.58;;;5.60;99.90;;;;;;5049355;28;20048;-65
2021/11/24 05:06:47;;;;;;;93.22;34.70;;;5.50;99.90;;;;;;5049460;28;20021;-62
2021/11/24 05:09:13;;;;;;;89.72;35.45;;;5.50;99.90;;;;;;5049137;28;20021;-62
2021/11/24 05:11:40;;;;;;;86.50;32.88;;;5.50;99.90;;;;;;5049077;28;20040;-65
2021/11/24 05:14:07;;;;;;;91.70;33.90;;;5.50;99.90;;;;;;5049132;28;20029;-64
2021/11/24 05:16:35;;;;;;;85.07;34.40;;;5.60;99.90;;;;;;5048301;28;20032;-62
2021/11/24 05:19:01;;;;;;;96.78;36.20;;;5.60;99.90;;;;;;5049381;28;20028;-64
2021/11/24 05:21:33;;;;;;;90.00;34.28;;;5.60;99.90;;;;;;5031657;28;20074;-64
2021/11/24 05:23:59;;;;;;;96.10;34.47;;;5.60;99.90;;;;;;5049086;28;20031;-65
2021/11/24 05:26:30;;;;;;;87.60;33.05;;;5.60;99.90;;;;;;5049446;28;20017;-63
2021/11/24 05:28:56;;;;;;;93.07;32.90;;;5.60;99.90;;;;;;5048796;28;20494;-63
2021/11/24 05:31:22;;;;;;;77.68;33.42;;;5.50;99.90;;;;;;5047426;28;20556;-64
2021/11/24 05:33:48;;;;;;;91.13;33.85;;;5.50;99.90;;;;;;5048689;28;20263;-64
2021/11/24 05:36:15;;;;;;;99.75;35.42;;;5.50;99.90;;;;;;5048096;28;20029;-65
2021/11/24 05:38:41;;;;;;;91.38;34.05;;;5.50;99.90;;;;;;5049020;28;20134;-65
2021/11/24 05:41:07;;;;;;;90.93;32.92;;;5.50;99.90;;;;;;5048798;28;20104;-61
2021/11/24 05:43:33;;;;;;;95.97;34.67;;;5.40;99.90;;;;;;5049276;28;20028;-65
2021/11/24 05:46:11;;;;;;;95.72;35.28;;;5.40;99.90;;;;;;5047762;28;20075;-65
2021/11/24 05:48:37;;;;;;;99.00;34.08;;;5.40;99.90;;;;;;5043909;28;20047;-65
2021/11/24 05:51:04;;;;;;;90.35;32.65;;;5.40;99.90;;;;;;5049007;28;20060;-64
2021/11/24 05:53:30;;;;;;;86.43;33.10;;;5.40;99.90;;;;;;5048781;28;20029;-64
2021/11/24 05:55:55;;;;;;;93.85;34.40;;;5.40;99.90;;;;;;5049654;28;20078;-65
2021/11/24 05:58:21;;;;;;;91.53;33.03;;;5.40;99.90;;;;;;5048664;28;20031;-59
2021/11/24 06:00:47;;;;;;;88.85;32.38;;;5.50;99.90;;;;;;5054303;28;20017;-64
2021/11/24 06:03:13;;;;;;;87.47;32.78;;;5.50;99.90;;;;;;5053856;28;20092;-65
2021/11/24 06:05:39;;;;;;;92.63;33.95;;;5.50;99.90;;;;;;5055659;28;20036;-65
2021/11/24 06:08:05;;;;;;;85.45;32.08;;;5.50;99.90;;;;;;5054928;28;20100;-65
2021/11/24 06:10:31;;;;;;;86.72;32.83;;;5.50;99.90;;;;;;5052065;28;20104;-65
2021/11/24 06:12:57;;;;;;;90.32;31.77;;;5.50;99.90;;;;;;5054529;28;20051;-65
2021/11/24 06:15:24;;;;;;;91.43;33.28;;;5.60;99.90;;;;;;5055616;28;20040;-65
2021/11/24 06:17:50;;;;;;;80.03;30.83;;;5.70;99.90;;;;;;5055331;28;20417;-65
2021/11/24 06:20:17;;;;;;;74.90;29.77;;;5.70;99.90;;;;;;5053446;28;20037;-64
2021/11/24 06:22:44;;;;;;;84.30;32.30;;;5.80;99.90;;;;;;5052323;28;20040;-63
2021/11/24 06:25:12;;;;;;;73.88;30.02;;;5.80;99.90;;;;;;5055480;28;20017;-65
2021/11/24 06:27:41;;;;;;;76.97;29.58;;;5.70;99.90;;;;;;5055100;28;20410;-63
2021/11/24 06:30:07;;;;;;;78.90;29.55;;;5.80;99.90;;;;;;5054258;28;20029;-65
2021/11/24 06:32:32;;;;;;;87.47;30.27;;;5.70;99.90;;;;;;5053924;28;20095;-64
2021/11/24 06:34:58;;;;;;;77.05;29.02;;;5.70;99.90;;;;;;5055618;28;20021;-65
2021/11/24 06:37:23;;;;;;;76.93;29.83;;;5.70;99.90;;;;;;5054087;28;20036;-65
2021/11/24 06:39:49;;;;;;;81.75;29.58;;;5.70;99.90;;;;;;5054755;28;20033;-64
2021/11/24 06:42:15;;;;;;;82.57;30.58;;;5.70;99.90;;;;;;5055403;28;20497;-65
2021/11/24 06:44:41;;;;;;;83.75;30.05;;;5.60;99.90;;;;;;5053308;28;20031;-65
2021/11/24 06:47:07;;;;;;;82.50;31.25;;;5.60;99.90;;;;;;5051879;28;20796;-65
2021/11/24 06:49:32;;;;;;;81.43;30.65;;;5.60;99.90;;;;;;5055329;28;20025;-65
2021/11/24 06:51:58;;;;;;;87.63;31.85;;;5.60;99.90;;;;;;5054163;28;20033;-64
2021/11/24 06:54:23;;;;;;;75.55;28.52;;;5.50;99.90;;;;;;5049620;28;20060;-66
2021/11/24 06:56:50;;;;;;;86.43;30.85;;;5.60;99.90;;;;;;5055880;28;20394;-66
2021/11/24 06:59:16;;;;;;;79.30;29.63;;;5.60;99.90;;;;;;5054728;28;20087;-65
2021/11/24 07:01:42;;;;;;;79.30;29.95;;;5.60;99.90;;;;;;5053583;28;20095;-66
2021/11/24 07:04:08;;;;;;;77.32;30.45;;;5.60;99.90;;;;;;5054101;28;20021;-66
2021/11/24 07:06:33;;;;;;;76.53;30.77;;;5.60;99.90;;;;;;5055902;28;20533;-67
2021/11/24 07:09:00;;;;;;;85.05;32.20;;;5.70;99.90;;;;;;5052275;28;20087;-67
2021/11/24 07:11:30;;;;;;;82.53;29.75;;;5.60;99.90;;;;;;5045129;28;20039;-66
2021/11/24 07:13:56;;;;;;;77.63;29.02;;;5.70;99.90;;;;;;5044727;28;20079;-66
2021/11/24 07:16:22;;;;;;;82.15;29.98;;;5.70;99.90;;;;;;5028235;28;20043;-66
2021/11/24 07:18:48;;;;;;;77.13;29.38;;;5.70;99.90;;;;;;5046031;28;20398;-65
2021/11/24 07:21:13;;;;;;;72.43;27.92;;;5.70;99.90;;;;;;5042554;28;20502;-66
2021/11/24 07:23:39;;;;;;;73.43;29.08;;;5.70;99.90;;;;;;5045686;28;20043;-66
2021/11/24 07:26:04;;;;;;;74.50;29.63;;;5.70;99.90;;;;;;5040265;28;20013;-67
2021/11/24 07:28:30;;;;;;;72.35;27.73;;;5.70;99.90;;;;;;5045701;28;20061;-67
2021/11/24 07:30:56;;;;;;;71.93;29.52;;;5.70;99.90;;;;;;5045558;28;20491;-66
2021/11/24 07:33:22;;;;;;;73.97;29.45;;;5.70;99.90;;;;;;5026003;28;20044;-66
2021/11/24 07:35:48;;;;;;;67.65;28.08;;;5.80;99.90;;;;;;5045677;28;20104;-68
2021/11/24 07:38:13;;;;;;;67.72;26.95;;;5.70;99.90;;;;;;5028813;28;20033;-66
2021/11/24 07:40:40;;;;;;;75.10;28.80;;;5.80;99.90;;;;;;5039718;28;20172;-67
2021/11/24 07:43:06;;;;;;;76.38;29.33;;;5.80;99.90;;;;;;5046748;28;20025;-66
2021/11/24 07:45:32;;;;;;;70.85;28.45;;;5.80;99.90;;;;;;5045949;28;20078;-66
2021/11/24 07:47:57;;;;;;;73.53;27.73;;;5.80;99.90;;;;;;5042537;28;20029;-67
2021/11/24 07:50:23;;;;;;;67.05;28.13;;;5.80;99.90;;;;;;5044452;28;20554;-67
2021/11/24 07:52:49;;;;;;;75.43;28.13;;;5.80;99.90;;;;;;5043566;28;20530;-68
2021/11/24 07:55:15;;;;;;;74.72;29.50;;;5.80;99.90;;;;;;5034287;28;20033;-66
2021/11/24 07:57:40;;;;;;;71.90;28.25;;;5.90;99.90;;;;;;5033412;28;20064;-66
2021/11/24 08:00:06;;;;;;;75.97;30.45;;;5.90;99.90;;;;;;5036368;28;20036;-67
2021/11/24 08:02:32;;;;;;;77.32;31.40;;;5.90;99.90;;;;;;5035670;28;20028;-66
2021/11/24 08:04:58;;;;;;;80.57;31.02;;;5.90;99.90;;;;;;5035733;28;20086;-67
2021/11/24 08:07:23;;;;;;;85.07;30.40;;;5.90;99.90;;;;;;5020753;28;20138;-67
2021/11/24 08:09:50;;;;;;;80.63;30.08;;;6.00;99.90;;;;;;5035869;28;20029;-66
2021/11/24 08:12:16;;;;;;;80.25;29.73;;;6.00;99.90;;;;;;5033642;28;20150;-66
2021/11/24 08:14:41;;;;;;;76.40;28.50;;;6.00;99.90;;;;;;5029929;28;20112;-66
2021/11/24 08:17:07;;;;;;;73.95;28.05;;;6.10;99.90;;;;;;5032609;28;20032;-68
2021/11/24 08:19:33;;;;;;;71.07;29.52;;;6.10;99.90;;;;;;5034704;28;20030;-67
2021/11/24 08:21:58;;;;;;;72.10;26.33;;;6.10;99.90;;;;;;5042256;28;20617;-67
2021/11/24 08:24:24;;;;;;;63.33;26.33;;;6.10;99.90;;;;;;5045210;28;20025;-67
2021/11/24 08:26:50;;;;;;;67.65;26.33;;;6.20;99.90;;;;;;5044439;28;20110;-66
2021/11/24 08:29:15;;;;;;;68.30;26.90;;;6.20;99.90;;;;;;5046002;28;20017;-67
2021/11/24 08:31:41;;;;;;;68.90;25.00;;;6.20;99.90;;;;;;5045968;28;20551;-67
2021/11/24 08:34:09;;;;;;;67.82;25.08;;;6.20;99.90;;;;;;5045011;28;20033;-67
2021/11/24 08:36:36;;;;;;;68.60;24.63;;;6.20;99.90;;;;;;5032918;28;20170;-67
2021/11/24 08:39:04;;;;;;;61.05;24.20;;;6.30;99.90;;;;;;5025618;28;20032;-67
2021/11/24 08:41:29;;;;;;;67.82;26.27;;;6.30;99.90;;;;;;5045589;28;20422;-65
2021/11/24 08:43:55;;;;;;;62.40;24.60;;;6.30;99.90;;;;;;5046169;28;20025;-67
2021/11/24 08:46:21;;;;;;;64.55;24.95;;;6.40;99.90;;;;;;5027864;28;20063;-66
2021/11/24 08:48:46;;;;;;;66.50;25.35;;;6.40;99.90;;;;;;5040612;28;20033;-67
2021/11/24 08:51:12;;;;;;;60.90;25.65;;;6.40;99.90;;;;;;5043277;28;20037;-67
2021/11/24 08:53:38;;;;;;;65.57;24.17;;;6.40;99.90;;;;;;5037958;28;20587;-66
2021/11/24 08:56:04;;;;;;;69.95;24.60;;;6.50;99.90;;;;;;5044597;28;20431;-66
2021/11/24 08:58:30;;;;;;;67.00;24.30;;;6.50;99.90;;;;;;5045075;28;20404;-66
2021/11/24 09:00:55;;;;;;;61.90;25.15;;;6.60;99.90;;;;;;5044148;28;20040;-67
2021/11/24 09:03:21;;;;;;;71.72;23.83;;;6.60;99.90;;;;;;5045003;28;20025;-67
2021/11/24 09:05:47;;;;;;;59.80;23.40;;;6.60;99.90;;;;;;5045624;28;20152;-67
2021/11/24 09:08:13;;;;;;;55.45;23.50;;;6.60;99.90;;;;;;5043898;28;20021;-66
2021/11/24 09:10:40;;;;;;;55.55;23.63;;;6.70;99.90;;;;;;5031892;28;20604;-66
2021/11/24 09:13:06;;;;;;;66.68;24.70;;;6.70;99.90;;;;;;5021601;28;20316;-67
2021/11/24 09:15:32;;;;;;;58.90;23.92;;;6.80;99.90;;;;;;5043701;28;20032;-66
2021/11/24 09:17:58;;;;;;;55.05;22.80;;;6.70;99.90;;;;;;5040151;28;20384;-68
2021/11/24 09:20:24;;;;;;;59.05;25.35;;;6.70;99.90;;;;;;5014261;28;20403;-66
2021/11/24 09:22:51;;;;;;;56.80;24.40;;;6.70;99.90;;;;;;5034166;28;20024;-67
2021/11/24 09:25:21;;;;;;;52.38;23.58;;;6.70;99.90;;;;;;5032729;28;20033;-67
2021/11/24 09:27:57;;;;;;;58.38;23.58;;;6.80;99.90;;;;;;5030834;28;20033;-67
2021/11/24 09:30:23;;;;;;;50.80;23.10;;;6.90;99.90;;;;;;5035356;28;20043;-67
2021/11/24 09:32:49;;;;;;;58.30;23.65;;;6.80;99.90;;;;;;5033260;28;20040;-67
2021/11/24 09:35:15;;;;;;;52.83;23.00;;;6.90;99.90;;;;;;5044599;28;20354;-66
2021/11/24 09:37:42;;;;;;;51.58;21.98;;;6.90;99.90;;;;;;5039700;28;20057;-66
2021/11/24 09:40:09;;;;;;;51.85;21.90;;;7.00;99.90;;;;;;5034991;28;20025;-66
2021/11/24 09:42:37;;;;;;;53.55;22.95;;;7.00;99.90;;;;;;5034587;28;20056;-67
2021/11/24 09:45:04;;;;;;;50.00;22.98;;;7.00;99.90;;;;;;5027550;28;20037;-67
2021/11/24 09:47:32;;;;;;;53.88;22.10;;;7.00;99.90;;;;;;5035949;28;20087;-67
2021/11/24 09:49:59;;;;;;;56.10;22.90;;;7.00;99.90;;;;;;5041057;28;20033;-68
2021/11/24 09:52:26;;;;;;;53.90;24.45;;;7.00;99.90;;;;;;5024336;28;20057;-66
2021/11/24 09:54:54;;;;;;;50.95;23.17;;;7.00;99.90;;;;;;5037640;28;20036;-66
2021/11/24 09:57:23;;;;;;;47.85;22.00;;;7.00;99.90;;;;;;5027080;28;20029;-66
2021/11/24 09:59:49;;;;;;;49.70;22.17;;;7.00;99.90;;;;;;5069768;22;20048;-56
2021/11/24 10:02:16;;;;;;;60.65;24.38;;;7.10;99.90;;;;;;5064042;28;20028;-58
2021/11/24 10:04:43;;;;;;;58.15;22.52;;;7.10;99.90;;;;;;5064636;28;20406;-60
2021/11/24 10:07:14;;;;;;;47.38;21.25;;;7.30;99.90;;;;;;5062021;28;20029;-58
2021/11/24 10:09:41;;;;;;;49.83;22.38;;;7.30;99.90;;;;;;5062305;28;20042;-56
2021/11/24 10:12:08;;;;;;;49.88;22.40;;;7.40;99.90;;;;;;5058093;28;20032;-58
2021/11/24 10:14:35;;;;;;;55.42;23.42;;;7.40;99.90;;;;;;5064198;28;20028;-57
2021/11/24 10:17:05;;;;;;;52.10;23.33;;;7.50;99.90;;;;;;5064986;28;20237;-61
2021/11/24 10:19:31;;;;;;;51.78;21.75;;;7.60;99.90;;;;;;5064262;28;20128;-55
2021/11/24 10:22:05;;;;;;;51.35;21.63;;;7.60;99.90;;;;;;5063399;28;20223;-55
2021/11/24 10:24:34;;;;;;;55.45;21.55;;;7.70;99.90;;;;;;5064781;28;20393;-58
2021/11/24 10:27:02;;;;;;;49.72;21.73;;;7.80;99.90;;;;;;5064761;28;20098;-60
2021/11/24 10:29:28;;;;;;;44.08;20.88;;;7.80;99.90;;;;;;5064589;28;20027;-60
2021/11/24 10:31:57;;;;;;;48.75;22.42;;;7.80;99.90;;;;;;5064755;28;20574;-57
2021/11/24 10:34:38;;;;;;;41.03;21.23;;;7.70;99.90;;;;;;5063798;28;20044;-57
2021/11/24 10:37:18;;;;;;;43.83;20.90;;;7.80;99.90;;;;;;5064464;28;20021;-58
2021/11/24 10:40:05;;;;;;;43.72;20.60;;;7.90;99.90;;;;;;5064142;28;20394;-57
2021/11/24 10:42:35;;;;;;;46.83;19.30;;;8.00;99.90;;;;;;5064619;28;20036;-58
2021/11/24 10:45:07;;;;;;;39.47;19.90;;;8.10;99.90;;;;;;5067871;28;20087;-61
2021/11/24 10:47:33;;;;;;;39.65;18.30;;;8.20;99.90;;;;;;5067869;28;20032;-57
2021/11/24 10:50:02;;;;;;;37.08;17.75;;;8.10;99.90;;;;;;5068056;28;20051;-57
2021/11/24 10:52:35;;;;;;;40.35;18.98;;;8.20;99.90;;;;;;5067726;28;20073;-56
2021/11/24 10:55:04;;;;;;;38.78;16.73;;;8.20;99.90;;;;;;5067907;28;20040;-58
2021/11/24 10:57:31;;;;;;;33.83;15.75;;;8.30;99.90;;;;;;5068774;28;20028;-57
2021/11/24 11:00:15;;;;;;;35.22;15.75;;;8.30;99.90;;;;;;5067621;28;20194;-55
2021/11/24 11:02:48;;;;;;;21.48;10.98;;;8.30;99.90;;;;;;5068660;28;20024;-57
2021/11/24 11:05:24;;;;;;;35.97;16.27;;;8.40;99.90;;;;;;5068021;28;20032;-52
2021/11/24 11:07:50;;;;;;;35.15;16.52;;;8.40;99.90;;;;;;5067787;28;20021;-58
2021/11/24 11:10:29;;;;;;;37.55;16.45;;;8.40;99.90;;;;;;5067868;28;20054;-58
2021/11/24 11:13:04;;;;;;;37.08;17.45;;;8.50;99.90;;;;;;5068051;28;20328;-58
2021/11/24 11:15:33;;;;;;;36.35;15.90;;;8.50;99.90;;;;;;5067410;28;20044;-60
2021/11/24 11:18:10;;;;;;;32.58;16.98;;;8.50;99.90;;;;;;5067702;28;20020;-59
2021/11/24 11:20:45;;;;;;;30.77;14.48;;;8.50;99.90;;;;;;5067505;28;20528;-61
2021/11/24 11:23:13;;;;;;;31.05;15.43;;;8.60;99.90;;;;;;5068218;28;20024;-59
2021/11/24 11:25:49;;;;;;;36.47;14.93;;;8.70;99.90;;;;;;5067559;28;20025;-60
2021/11/24 11:28:15;;;;;;;35.83;14.05;;;8.70;99.90;;;;;;5061453;28;20027;-59
2021/11/24 11:30:43;;;;;;;31.92;14.63;;;8.80;99.90;;;;;;5067358;28;20351;-59
2021/11/24 11:33:10;;;;;;;21.70;11.27;;;8.90;99.90;;;;;;5063527;28;20043;-60
2021/11/24 11:35:36;;;;;;;32.30;14.15;;;8.90;99.90;;;;;;5068085;28;20023;-60
2021/11/24 11:38:02;;;;;;;29.17;13.10;;;9.00;99.90;;;;;;5067753;28;20104;-59
2021/11/24 11:40:28;;;;;;;24.88;13.05;;;9.00;99.90;;;;;;5066439;28;20040;-60
2021/11/24 11:42:58;;;;;;;28.23;12.80;;;9.00;99.90;;;;;;5067256;28;20094;-60
2021/11/24 11:45:28;;;;;;;22.40;11.80;;;8.90;99.90;;;;;;5067082;28;20028;-61
2021/11/24 11:47:55;;;;;;;18.90;9.48;;;8.90;99.90;;;;;;5067229;28;20644;-57
2021/11/24 11:50:54;;;;;;;14.45;6.35;;;8.80;99.90;;;;;;5066950;28;20513;-60
2021/11/24 11:53:48;;;;;;;12.18;5.57;;;8.70;99.90;;;;;;5067100;28;20390;-55
2021/11/24 11:56:44;;;;;;;14.13;5.88;;;8.60;99.90;;;;;;5066411;28;20035;-60
2021/11/24 11:59:21;;;;;;;9.68;4.30;;;8.60;99.90;;;;;;5066370;28;20338;-59
2021/11/24 12:01:46;;;;;;;9.90;4.47;;;8.50;99.90;;;;;;5067236;28;20032;-60
2021/11/24 12:04:26;;;;;;;7.63;4.03;;;8.50;99.90;;;;;;5066198;28;20488;-60
2021/11/24 12:06:51;;;;;;;9.60;4.18;;;8.40;99.90;;;;;;5067272;28;20545;-58
2021/11/24 12:09:22;;;;;;;8.07;4.10;;;8.40;99.90;;;;;;5066672;28;20162;-59
2021/11/24 12:14:47;;;;;;;10.82;4.28;;;8.50;99.90;;;;;;5067085;28;20075;-56
2021/11/24 12:17:35;;;;;;;10.85;5.05;;;8.60;99.90;;;;;;5066347;28;20478;-57
2021/11/24 12:20:19;;;;;;;9.38;4.03;;;8.60;99.90;;;;;;5066627;28;20029;-57
2021/11/24 12:23:00;;;;;;;6.95;2.97;;;8.60;99.90;;;;;;5065713;28;20538;-59
2021/11/24 12:25:26;;;;;;;4.20;2.72;;;8.60;99.90;;;;;;5066560;28;20115;-61
2021/11/24 12:27:58;;;;;;;3.70;2.58;;;8.60;99.90;;;;;;5066858;28;20016;-61
2021/11/24 12:30:52;;;;;;;4.57;1.83;;;8.50;99.90;;;;;;5061848;28;20091;-58
2021/11/24 12:33:33;;;;;;;4.53;2.40;;;8.60;99.90;;;;;;5065810;28;20035;-59
2021/11/24 12:36:07;;;;;;;3.53;1.90;;;8.70;99.90;;;;;;5061659;28;20039;-57
2021/11/24 12:38:39;;;;;;;3.60;2.00;;;8.70;99.90;;;;;;5059575;28;20078;-59
2021/11/24 12:41:23;;;;;;;2.55;1.83;;;8.60;99.90;;;;;;5066371;28;20111;-57
2021/11/24 12:43:55;;;;;;;2.22;1.23;;;8.60;99.90;;;;;;5064876;28;20035;-56